Lakeland, Louisiana
Current Conditions -  °F | °C
As of 2:55 AM on Wednesday 26 Nov 2014 (Local Time) from KHZR Reporting Station
Haze Haze  
Wind Chill: 34°   Ceiling: 500
Heat Index: 34°   Visibility: 0.75mi
Dew Point: 33°   Wind: 0mph
Humidity: 98%   Direction: NA
Pressure: 30.21"   Gusts: NA
Location:  30.6°N, 91.4°W
Report Text: KHZR 260855Z AUTO 00000KT 3/4SM BR VV005 01/01 A3021 RMK AO2 T00110008
Loading
Personal Weather Stations






























Interactive Weather Map New forecast layout! Learn more

10-Day Weather Forecast

Advertisements
Track Severe Weather on mobile